Terminal Aerodrome Forecast
Issued by NWS Jackson, MS

Home | Current Version | Previous Version | Text Only | Print | Product List | Glossary On
Versions: 1 2 3 4 5 6 7 8 9 10 11 12 13
936
FTUS44 KJAN 201720
TAFGLH
TAF
KGLH 201720Z 2018/2118 18005KT P6SM FEW050 SCT100
     FM211000 17003KT 5SM BR FEW050 SCT100
     FM211400 19005KT P6SM BKN250=

USA.gov is the U.S. government's official web portal to all federal, state and local government web resources and services.